Latest Coastal Weather Observations for Derby

IDW60701

Issued at 10:25 pm WST Tuesday 23 September 2014 (issued every 10 minutes, with the page automatically refreshed every 10 minutes)

About coastal observations | Map of coastal stations | Coastal observations for WA | Marine services | Other Formats
Station Details ID: 003032 Name: DERBY AERO Lat: -17.37 Lon: 123.66 Height: 6.2 m
Data from the previous 72 hours. | See also: Recent months at Derby
Date/Time
WST
Temp

°C
Wind Pressure Rain
since 9am
mm
Weather Cloud Vis
km
Sea
Height
m
Swell
Dir
 
Speed
knots
Gust
knots
hPa Trend Height
m
Period
s
Dir
23/10:00pm 23.7 SE 8 9 1014.8 - 0.0 - - - - - - -
23/09:30pm 23.0 SE 7 8 1014.6 - 0.0 - - - - - - -
23/09:00pm 24.8 SE 7 8 1014.6 - 0.0 - - - - - - -
23/08:30pm 21.9 SE 7 8 1014.4 - 0.0 - - - - - - -
23/08:00pm 22.7 SE 6 7 1014.1 - 0.0 - - - - - - -
23/07:30pm 24.0 SE 5 5 1013.9 - 0.0 - - - - - - -
23/07:00pm 26.8 SSE 6 8 1013.5 - 0.0 - - - - - - -
23/06:30pm 28.1 SSE 7 8 1013.1 - 0.0 - - - - - - -
23/06:00pm 29.1 S 6 7 1012.8 - 0.0 - - - - - - -
23/05:30pm 31.7 S 9 12 1012.4 - 0.0 - - - - - - -
23/05:00pm 32.9 S 10 13 1012.1 - 0.0 - - - - - - -
23/04:30pm 33.5 SSW 11 16 1012.0 - 0.0 - - - - - - -
23/04:00pm 33.7 S 11 14 1011.9 - 0.0 - - - - - - -
23/03:30pm 34.1 S 12 18 1011.8 - 0.0 - - - - - - -
23/03:00pm 34.5 S 13 18 1011.9 - 0.0 - - - - - - -
23/02:30pm 34.3 S 13 16 1012.0 - 0.0 - - - - - - -
23/02:00pm 33.8 S 10 15 1012.5 - 0.0 - - - - - - -
23/01:30pm 33.0 S 11 17 1012.8 - 0.0 - - - - - - -
23/01:00pm 33.6 S 15 19 1013.2 - 0.0 - - - - - - -
23/12:30pm 32.5 S 11 18 1013.6 - 0.0 - - - - - - -
23/12:00pm 32.4 SSE 11 17 1014.1 - 0.0 - - - - - - -
23/11:30am 32.3 ESE 12 17 1014.6 - 0.0 - - - - - - -
23/11:00am 30.5 SSE 14 19 1015.2 - 0.0 - - - - - - -
23/10:30am 30.4 SE 15 20 1015.7 - 0.0 - - - - - - -
23/10:00am 29.9 SSE 16 21 1016.0 - 0.0 - - - - - - -
23/09:30am 29.5 SE 15 22 1016.4 - 0.0 - - - - - - -
23/09:00am 28.3 SSE 16 22 1016.5 - 0.0 - - - - - - -
23/08:30am 28.1 SE 16 22 1016.5 - 0.0 - - - - - - -
23/08:00am 27.4 SE 17 23 1016.2 - 0.0 - - - - - - -
23/07:30am 26.7 SE 14 22 1015.8 - 0.0 - - - - - - -
23/07:00am 25.2 SSE 11 16 1015.4 - 0.0 - - - - - - -
23/06:30am 23.4 SSE 9 13 1014.7 - 0.0 - - - - - - -
23/06:00am 22.6 SSE 10 13 1014.2 - 0.0 - - - - - - -
23/05:30am 20.8 ESE 7 9 1013.6 - 0.0 - - - - - - -
23/05:00am 20.2 S 9 11 1012.7 - 0.0 - - - - - - -
23/04:30am 20.7 S 7 9 1012.4 - 0.0 - - - - - - -
23/04:00am 21.2 S 7 9 1012.0 - 0.0 - - - - - - -
23/03:30am 21.3 S 7 9 1011.6 - 0.0 - - - - - - -
23/03:00am 21.1 S 7 7 1011.5 - 0.0 - - - - - - -
23/02:30am 20.6 S 7 8 1011.3 - 0.0 - - - - - - -
23/02:00am 21.2 S 6 7 1011.2 - 0.0 - - - - - - -
23/01:30am 21.8 S 5 6 1011.4 - 0.0 - - - - - - -
23/01:00am 22.6 S 5 6 1011.6 - 0.0 - - - - - - -
23/12:30am 23.2 S 5 6 1011.8 - 0.0 - - - - - - -
23/12:00am 23.9 S 6 7 1011.9 - 0.0 - - - - - - -
 
Date/Time
WST
Temp

°C
Wind Pressure Rain
since 9am
mm
Weather Cloud Vis
km
Sea
Height
m
Swell
Dir
 
Speed
knots
Gust
knots
hPa Trend Height
m
Period
s
Dir
22/11:30pm 24.6 S 5 7 1012.3 - 0.0 - - - - - - -
22/11:00pm 24.8 SSW 6 8 1012.4 - 0.0 - - - - - - -
22/10:30pm 25.0 S 5 6 1012.3 - 0.0 - - - - - - -
22/10:00pm 25.3 S 4 6 1012.3 - 0.0 - - - - - - -
22/09:30pm 26.0 WSW 5 8 1012.2 - 0.0 - - - - - - -
22/09:00pm 25.0 E 3 6 1012.3 - 0.0 - - - - - - -
22/08:30pm 26.4 NW 3 5 1011.9 - 0.0 - - - - - - -
22/08:00pm 26.9 NNW 7 9 1011.6 - 0.0 - - - - - - -
22/07:30pm 27.3 NNW 10 12 1011.2 - 0.0 - - - - - - -
22/07:00pm 27.4 NNW 11 13 1010.8 - 0.0 - - - - - - -
22/06:30pm 27.7 NNW 14 17 1010.4 - 0.0 - - - - - - -
22/06:00pm 28.3 NNW 12 15 1009.9 - 0.0 - - - - - - -
22/05:30pm 28.9 NNW 14 18 1009.6 - 0.0 - - - - - - -
22/05:00pm 29.8 NNW 15 19 1009.5 - 0.0 - - - - - - -
22/04:30pm 30.1 NNW 19 23 1009.2 - 0.0 - - - - - - -
22/04:00pm 30.6 NNW 19 24 1009.3 - 0.0 - - - - - - -
22/03:30pm 32.2 NNW 18 21 1009.1 - 0.0 - - - - - - -
22/03:00pm 33.0 NNW 18 21 1009.2 - 0.0 - - - - - - -
22/02:30pm 33.7 NNW 18 21 1009.3 - 0.0 - - - - - - -
22/02:00pm 34.9 NNW 15 19 1009.5 - 0.0 - - - - - - -
22/01:30pm 34.1 NNW 15 19 1009.8 - 0.0 - - - - - - -
22/01:00pm 33.7 NNW 14 18 1010.2 - 0.0 - - - - - - -
22/12:30pm 33.6 NNW 13 17 1010.8 - 0.0 - - - - - - -
22/12:00pm 33.9 NNW 13 16 1011.2 - 0.0 - - - - - - -
22/11:30am 33.6 NNW 11 15 1011.9 - 0.0 - - - - - - -
22/11:00am 34.1 NNW 10 15 1012.3 - 0.0 - - - - - - -
22/10:30am 32.8 NW 8 12 1012.7 - 0.0 - - - - - - -
22/10:00am 32.7 WNW 9 11 1013.2 - 0.0 - - - - - - -
22/09:30am 32.2 WNW 6 9 1013.6 - 0.0 - - - - - - -
22/09:00am 30.6 W 5 9 1013.9 - 0.0 - - - - - - -
22/08:30am 29.9 WSW 7 11 1014.0 - 0.0 - - - - - - -
22/08:00am 28.3 SSW 5 7 1014.2 - 0.0 - - - - - - -
22/07:30am 27.9 E 3 5 1013.9 - 0.0 - - - - - - -
22/07:00am 25.5 NNE 5 7 1013.7 - 0.0 - - - - - - -
22/06:30am 22.9 NE 6 7 1013.1 - 0.0 - - - - - - -
22/06:00am 21.4 ENE 6 9 1012.6 - 0.0 - - - - - - -
22/05:30am 21.3 E 2 4 1012.0 - 0.0 - - - - - - -
22/05:00am 22.2 SE 3 5 1011.4 - 0.0 - - - - - - -
22/04:30am 22.0 SSE 6 7 1010.9 - 0.0 - - - - - - -
22/04:00am 21.4 SSE 6 7 1010.6 - 0.0 - - - - - - -
22/03:30am 21.9 S 5 7 1010.4 - 0.0 - - - - - - -
22/03:00am 21.9 SSE 4 5 1010.5 - 0.0 - - - - - - -
22/02:30am 21.1 SSE 5 6 1010.7 - 0.0 - - - - - - -
22/02:00am 22.4 SSE 6 6 1010.7 - 0.0 - - - - - - -
22/01:30am 22.7 S 6 7 1011.0 - 0.0 - - - - - - -
22/01:00am 23.1 SW 1 4 1011.2 - 0.0 - - - - - - -
22/12:30am 23.9 SW 4 6 1011.6 - 0.0 - - - - - - -
22/12:00am 23.9 S 4 5 1012.0 - 0.0 - - - - - - -
 
Date/Time
WST
Temp

°C
Wind Pressure Rain
since 9am
mm
Weather Cloud Vis
km
Sea
Height
m
Swell
Dir
 
Speed
knots
Gust
knots
hPa Trend Height
m
Period
s
Dir
21/11:30pm 24.2 SW 4 5 1012.4 - 0.0 - - - - - - -
21/11:00pm 24.5 W 4 5 1012.6 - 0.0 - - - - - - -
21/10:30pm 25.1 W 5 6 1012.7 - 0.0 - - - - - - -
21/10:00pm 25.7 W 7 8 1012.9 - 0.0 - - - - - - -
21/09:30pm 26.2 NW 8 10 1012.9 - 0.0 - - - - - - -
21/09:00pm 27.0 NW 10 12 1012.8 - 0.0 - - - - - - -
21/08:30pm 27.4 NNW 11 13 1012.7 - 0.0 - - - - - - -
21/08:00pm 27.8 NNW 13 16 1012.6 - 0.0 - - - - - - -
21/07:30pm 28.2 NNW 14 18 1012.2 - 0.0 - - - - - - -
21/07:00pm 28.5 N 12 15 1012.0 - 0.0 - - - - - - -
21/06:30pm 28.6 N 13 15 1011.6 - 0.0 - - - - - - -
21/06:00pm 29.4 N 12 15 1011.2 - 0.0 - - - - - - -
21/05:30pm 30.2 N 13 16 1010.6 - 0.0 - - - - - - -
21/05:00pm 30.7 N 14 18 1010.6 - 0.0 - - - - - - -
21/04:30pm 31.4 N 15 19 1010.2 - 0.0 - - - - - - -
21/04:00pm 32.3 N 14 17 1010.2 - 0.0 - - - - - - -
21/03:30pm 32.8 NNW 15 18 1010.1 - 0.0 - - - - - - -
21/03:00pm 32.5 NNW 16 19 1010.2 - 0.0 - - - - - - -
21/02:30pm 34.3 NNW 15 18 1010.3 - 0.0 - - - - - - -
21/02:00pm 34.3 NNW 13 16 1010.5 - 0.0 - - - - - - -
21/01:30pm 35.5 NNW 9 13 1010.7 - 0.0 - - - - - - -
21/01:00pm 35.1 NW 9 13 1011.2 - 0.0 - - - - - - -
21/12:30pm 34.6 NNW 8 12 1011.7 - 0.0 - - - - - - -
21/12:00pm 33.5 NW 9 12 1012.2 - 0.0 - - - - - - -
21/11:30am 32.7 NNW 8 10 1012.6 - 0.0 - - - - - - -
21/11:00am 31.5 NW 7 10 1013.4 - 0.0 - - - - - - -
21/10:30am 30.4 NW 8 11 1014.0 - 0.0 - - - - - - -
21/10:00am 29.6 NNW 8 11 1014.3 - 0.0 - - - - - - -
21/09:30am 29.4 NW 6 10 1014.9 - 0.0 - - - - - - -
21/09:00am 29.1 WNW 9 12 1015.1 - 0.0 - - - - - - -
21/08:30am 28.2 NW 12 15 1015.1 - 0.0 - - - - - - -
21/08:00am 27.6 NW 13 16 1015.1 - 0.0 - - - - - - -
21/07:30am 27.0 NNW 13 15 1015.0 - 0.0 - - - - - - -
21/07:00am 26.4 NNW 12 16 1014.6 - 0.0 - - - - - - -
21/06:30am 24.8 N 5 7 1014.2 - 0.0 - - - - - - -
21/06:00am 22.5 N 6 8 1014.0 - 0.0 - - - - - - -
21/05:30am 22.4 NNE 6 7 1013.8 - 0.0 - - - - - - -
21/05:00am 22.1 NE 7 11 1013.5 - 0.0 - - - - - - -
21/04:30am 22.3 N 3 8 1012.7 - 0.0 - - - - - - -
21/04:00am 22.1 NE 4 8 1012.3 - 0.0 - - - - - - -
21/03:30am 22.4 NNE 7 9 1012.2 - 0.0 - - - - - - -
21/03:00am 22.0 N 3 5 1011.7 - 0.0 - - - - - - -
21/02:30am 22.4 NNW 4 6 1011.8 - 0.0 - - - - - - -
21/02:00am 22.9 NNW 3 5 1011.9 - 0.0 - - - - - - -
21/01:30am 23.4 NNE 6 7 1012.2 - 0.0 - - - - - - -
21/01:00am 22.9 NNW 1 4 1012.0 - 0.0 - - - - - - -
21/12:30am 23.8 NNE 3 5 1012.1 - 0.0 - - - - - - -
21/12:00am 23.8 NW 4 5 1012.5 - 0.0 - - - - - - -
 
Date/Time
WST
Temp

°C
Wind Pressure Rain
since 9am
mm
Weather Cloud Vis
km
Sea
Height
m
Swell
Dir
 
Speed
knots
Gust
knots
hPa Trend Height
m
Period
s
Dir
20/11:30pm 24.8 N 5 6 1012.7 - 0.0 - - - - - - -
20/11:00pm 25.3 NNW 3 6 1013.0 - 0.0 - - - - - - -
20/10:30pm 26.1 N 1 7 1013.2 - 0.0 - - - - - - -

Other Formats:

Comma delimited format used in spreadsheet applications
http://www.bom.gov.au/fwo/IDW60701/IDW60701.95205.axf

JavaScript Object Notation format (JSON) in row-major order
http://www.bom.gov.au/fwo/IDW60701/IDW60701.95205.json